Time;durP1;ratioP1;P1;durP2;ratioP2;P2;SDS_P1;SDS_P2;PMS_P1;PMS_P2;Temp;Humidity;BMP_temperature;BMP_pressure;BME280_temperature;BME280_humidity;BME280_pressure;Samples;Min_cycle;Max_cycle;Signal;HPM_P1;HPM_P2
2022/01/21 00:00:52;;;;;;;9.23;4.53;;;;;;;;;;5074492;28;20441;-78
2022/01/21 00:03:20;;;;;;;11.40;4.73;;;;;;;;;;5063879;28;20442;-78
2022/01/21 00:05:47;;;;;;;6.63;5.53;;;;;;;;;;5073048;28;20441;-79
2022/01/21 00:08:14;;;;;;;5.73;3.87;;;;;;;;;;5068787;28;20465;-77
2022/01/21 00:10:41;;;;;;;4.80;3.27;;;;;;;;;;5074543;28;20453;-77
2022/01/21 00:13:17;;;;;;;8.03;4.20;;;;;;;;;;5074050;28;20456;-78
2022/01/21 00:15:44;;;;;;;7.57;4.23;;;;;;;;;;5069010;28;20575;-79
2022/01/21 00:18:13;;;;;;;8.83;4.17;;;;;;;;;;5073495;28;21230;-79
2022/01/21 00:31:38;;;;;;;7.43;4.00;;;;;;;;;;5072966;28;20449;-78
2022/01/21 00:34:07;;;;;;;5.90;3.60;;;;;;;;;;5073413;28;20464;-78
2022/01/21 00:36:34;;;;;;;11.10;3.90;;;;;;;;;;5075195;28;21227;-78
2022/01/21 00:39:01;;;;;;;5.03;3.40;;;;;;;;;;5075114;28;20469;-78
2022/01/21 00:41:33;;;;;;;13.30;5.07;;;;;;;;;;5074755;28;20544;-77
2022/01/21 00:44:00;;;;;;;8.47;4.57;;;;;;;;;;5074886;28;20453;-79
2022/01/21 00:46:27;;;;;;;5.67;3.83;;;;;;;;;;5076119;28;20437;-78
2022/01/21 00:48:57;;;;;;;7.13;4.23;;;;;;;;;;5075309;28;20996;-79
2022/01/21 00:51:25;;;;;;;4.63;3.67;;;;;;;;;;5074826;28;20490;-78
2022/01/21 00:53:52;;;;;;;6.77;4.80;;;;;;;;;;5074974;28;20464;-80
2022/01/21 00:56:19;;;;;;;6.13;4.60;;;;;;;;;;5074812;28;20472;-78
2022/01/21 00:58:47;;;;;;;14.13;4.70;;;;;;;;;;5076546;28;20453;-79
2022/01/21 01:01:14;;;;;;;11.33;4.47;;;;;;;;;;5074804;28;20445;-78
2022/01/21 01:03:41;;;;;;;7.93;3.57;;;;;;;;;;5068525;28;20441;-78
2022/01/21 01:06:08;;;;;;;8.73;4.87;;;;;;;;;;5057510;28;20454;-77
2022/01/21 01:08:37;;;;;;;4.40;4.00;;;;;;;;;;5055510;28;20466;-77
2022/01/21 01:11:16;;;;;;;8.27;3.87;;;;;;;;;;5054735;28;20454;-77
2022/01/21 01:21:57;;;;;;;5.70;3.60;;;;;;;;;;5058245;28;20426;-78
2022/01/21 01:29:56;;;;;;;5.73;4.10;;;;;;;;;;5053691;28;20793;-78
2022/01/21 01:32:24;;;;;;;6.73;4.03;;;;;;;;;;5054653;28;20448;-77
2022/01/21 01:34:52;;;;;;;4.83;3.90;;;;;;;;;;5055133;28;20520;-79
2022/01/21 01:37:32;;;;;;;5.97;3.20;;;;;;;;;;5058370;28;20493;-77
2022/01/21 01:40:14;;;;;;;6.30;3.80;;;;;;;;;;5058986;28;20449;-77
2022/01/21 01:51:04;;;;;;;9.50;4.23;;;;;;;;;;5039130;28;20563;-78
2022/01/21 01:53:33;;;;;;;5.43;3.37;;;;;;;;;;5073110;28;20443;-77
2022/01/21 01:56:02;;;;;;;9.37;4.20;;;;;;;;;;5074381;28;20523;-78
2022/01/21 01:58:29;;;;;;;6.30;3.37;;;;;;;;;;5076438;28;21003;-78
2022/01/21 02:00:56;;;;;;;5.83;3.67;;;;;;;;;;5074905;28;20445;-78
2022/01/21 02:03:24;;;;;;;7.73;4.43;;;;;;;;;;5066245;28;20787;-78
2022/01/21 02:05:51;;;;;;;7.77;3.50;;;;;;;;;;5053714;28;20591;-78
2022/01/21 02:08:18;;;;;;;5.20;3.57;;;;;;;;;;5053303;28;20524;-79
2022/01/21 02:10:45;;;;;;;6.90;3.53;;;;;;;;;;5052844;28;20454;-79
2022/01/21 02:13:21;;;;;;;5.07;3.63;;;;;;;;;;5054376;28;20450;-77
2022/01/21 02:15:57;;;;;;;4.97;4.10;;;;;;;;;;5069071;28;21029;-76
2022/01/21 02:21:34;;;;;;;7.30;4.20;;;;;;;;;;5054504;28;20787;-78
2022/01/21 02:24:03;;;;;;;10.50;3.70;;;;;;;;;;5054351;28;20434;-78
2022/01/21 02:26:30;;;;;;;5.30;4.40;;;;;;;;;;5056242;28;20445;-78
2022/01/21 02:28:59;;;;;;;7.17;3.27;;;;;;;;;;5056234;28;20462;-78
2022/01/21 02:31:26;;;;;;;5.17;3.70;;;;;;;;;;5054767;28;20477;-77
2022/01/21 02:33:54;;;;;;;4.87;4.30;;;;;;;;;;5054581;28;20438;-78
2022/01/21 02:36:22;;;;;;;6.03;3.90;;;;;;;;;;5053110;28;20482;-78
2022/01/21 02:38:49;;;;;;;5.17;4.00;;;;;;;;;;5055092;28;20473;-78
2022/01/21 02:41:16;;;;;;;8.83;3.63;;;;;;;;;;5054892;28;20434;-80
2022/01/21 02:43:43;;;;;;;7.87;3.93;;;;;;;;;;5057633;28;20434;-78
2022/01/21 02:46:10;;;;;;;6.83;4.33;;;;;;;;;;5057600;28;20886;-79
2022/01/21 02:48:38;;;;;;;8.93;3.93;;;;;;;;;;5056352;28;20457;-79
2022/01/21 02:51:07;;;;;;;8.23;3.90;;;;;;;;;;5057619;28;20446;-78
2022/01/21 02:54:03;;;;;;;11.10;3.90;;;;;;;;;;5055968;28;20468;-79
2022/01/21 02:56:27;;;;;;;4.40;4.00;;;;;;;;;;5056549;28;20482;-79
2022/01/21 02:58:54;;;;;;;7.10;3.50;;;;;;;;;;5056169;28;21017;-77
2022/01/21 03:01:22;;;;;;;4.40;3.40;;;;;;;;;;5055976;28;20979;-77
2022/01/21 03:03:49;;;;;;;7.67;4.07;;;;;;;;;;5068389;28;20441;-79
2022/01/21 03:06:17;;;;;;;15.27;4.40;;;;;;;;;;5077180;28;20444;-79
2022/01/21 03:08:46;;;;;;;6.93;4.40;;;;;;;;;;5076571;28;20465;-78
2022/01/21 03:11:13;;;;;;;3.97;3.50;;;;;;;;;;5070129;28;20457;-79
2022/01/21 03:13:40;;;;;;;7.50;3.83;;;;;;;;;;5075765;28;20442;-78
2022/01/21 03:16:07;;;;;;;7.00;3.70;;;;;;;;;;5079290;28;20487;-78
2022/01/21 03:18:34;;;;;;;5.23;3.90;;;;;;;;;;5077817;28;20464;-77
2022/01/21 03:21:02;;;;;;;8.67;3.90;;;;;;;;;;5077287;28;20449;-79
2022/01/21 03:23:29;;;;;;;6.40;4.50;;;;;;;;;;5075104;28;20813;-77
2022/01/21 03:25:58;;;;;;;8.17;4.33;;;;;;;;;;5076129;28;20548;-78
2022/01/21 03:28:25;;;;;;;10.30;4.10;;;;;;;;;;5075213;28;20539;-77
2022/01/21 03:30:56;;;;;;;4.77;3.90;;;;;;;;;;5074096;28;20997;-78
2022/01/21 03:33:23;;;;;;;5.40;3.90;;;;;;;;;;5074046;28;20480;-78
2022/01/21 03:35:53;;;;;;;5.40;4.23;;;;;;;;;;5073874;28;20904;-79
2022/01/21 03:38:20;;;;;;;6.40;4.60;;;;;;;;;;5074344;28;20479;-78
2022/01/21 03:40:47;;;;;;;4.33;3.93;;;;;;;;;;5074168;28;20539;-77
2022/01/21 03:43:16;;;;;;;4.13;3.73;;;;;;;;;;5077419;28;20932;-78
2022/01/21 03:45:43;;;;;;;11.07;4.87;;;;;;;;;;5074445;28;20456;-77
2022/01/21 03:48:10;;;;;;;7.73;4.37;;;;;;;;;;5074093;28;20488;-79
2022/01/21 03:50:37;;;;;;;10.33;3.77;;;;;;;;;;5073238;28;20526;-78
2022/01/21 03:53:05;;;;;;;6.67;4.00;;;;;;;;;;5072280;28;20433;-76
2022/01/21 03:55:33;;;;;;;4.80;3.70;;;;;;;;;;5071976;28;20444;-77
2022/01/21 03:58:00;;;;;;;5.20;4.53;;;;;;;;;;5072982;28;20905;-77
2022/01/21 04:00:30;;;;;;;7.20;4.33;;;;;;;;;;5072831;28;20441;-78
2022/01/21 04:02:57;;;;;;;7.30;4.30;;;;;;;;;;5073112;28;20826;-79
2022/01/21 04:05:24;;;;;;;8.80;4.47;;;;;;;;;;5073573;28;20455;-77
2022/01/21 04:07:51;;;;;;;7.37;4.90;;;;;;;;;;5076332;28;20904;-78
2022/01/21 04:10:18;;;;;;;10.27;6.50;;;;;;;;;;5072089;28;20502;-80
2022/01/21 04:12:46;;;;;;;4.37;3.97;;;;;;;;;;5071575;28;20531;-77
2022/01/21 04:15:13;;;;;;;5.47;4.40;;;;;;;;;;5071741;28;20432;-79
2022/01/21 04:17:41;;;;;;;8.87;4.77;;;;;;;;;;5071626;28;20489;-78
2022/01/21 04:20:09;;;;;;;4.37;3.90;;;;;;;;;;5071671;28;20502;-79
2022/01/21 04:22:37;;;;;;;6.90;4.40;;;;;;;;;;5071932;28;20430;-77
2022/01/21 04:25:04;;;;;;;9.90;4.47;;;;;;;;;;5071774;28;20433;-79
2022/01/21 04:27:31;;;;;;;6.53;5.30;;;;;;;;;;5072081;28;20481;-77
2022/01/21 04:29:58;;;;;;;8.30;4.13;;;;;;;;;;5062547;28;20960;-78
2022/01/21 04:32:25;;;;;;;7.07;4.73;;;;;;;;;;5071768;28;20457;-77
2022/01/21 04:34:53;;;;;;;6.97;4.47;;;;;;;;;;5072301;28;20445;-78
2022/01/21 04:37:21;;;;;;;8.03;4.47;;;;;;;;;;5071279;28;20485;-78
2022/01/21 04:39:53;;;;;;;10.17;4.33;;;;;;;;;;5072112;28;20441;-76
2022/01/21 04:47:50;;;;;;;12.57;5.20;;;;;;;;;;5071759;28;20479;-77
2022/01/21 04:50:18;;;;;;;8.27;4.57;;;;;;;;;;5070959;28;20937;-77
2022/01/21 04:52:45;;;;;;;11.00;5.00;;;;;;;;;;5072871;28;21006;-79
2022/01/21 04:55:14;;;;;;;12.97;4.33;;;;;;;;;;5071577;28;20441;-78
2022/01/21 04:57:41;;;;;;;10.23;4.50;;;;;;;;;;5072535;28;20477;-78
2022/01/21 05:00:09;;;;;;;10.13;5.43;;;;;;;;;;5072570;28;20445;-77
2022/01/21 05:02:37;;;;;;;6.80;4.20;;;;;;;;;;5073952;28;20452;-77
2022/01/21 05:05:05;;;;;;;8.27;5.67;;;;;;;;;;5055656;28;20442;-77
2022/01/21 05:07:37;;;;;;;9.43;5.43;;;;;;;;;;5056825;28;20470;-77
2022/01/21 05:10:04;;;;;;;11.87;4.73;;;;;;;;;;5054908;28;20489;-77
2022/01/21 05:12:31;;;;;;;6.30;5.13;;;;;;;;;;5055746;28;20541;-77
2022/01/21 05:15:16;;;;;;;5.80;4.53;;;;;;;;;;5075017;28;20585;-77
2022/01/21 05:17:48;;;;;;;12.53;5.17;;;;;;;;;;5075661;28;20551;-77
2022/01/21 05:20:15;;;;;;;13.77;5.57;;;;;;;;;;5076940;28;20440;-76
2022/01/21 05:22:44;;;;;;;10.37;5.20;;;;;;;;;;5076604;28;20414;-75
2022/01/21 05:25:16;;;;;;;7.50;5.17;;;;;;;;;;5076374;28;20444;-75
2022/01/21 05:27:44;;;;;;;10.03;5.40;;;;;;;;;;5076896;28;20489;-76
2022/01/21 05:30:12;;;;;;;7.60;5.20;;;;;;;;;;5076954;28;20449;-76
2022/01/21 05:32:39;;;;;;;10.77;5.57;;;;;;;;;;5076547;28;20523;-76
2022/01/21 05:35:07;;;;;;;8.27;4.97;;;;;;;;;;5075840;28;20430;-76
2022/01/21 05:37:34;;;;;;;9.87;4.73;;;;;;;;;;5075223;28;20486;-75
2022/01/21 05:40:03;;;;;;;11.33;5.50;;;;;;;;;;5075217;28;20461;-76
2022/01/21 05:42:33;;;;;;;8.30;5.10;;;;;;;;;;5071066;28;20453;-77
2022/01/21 05:47:45;;;;;;;8.13;5.83;;;;;;;;;;5055815;28;20479;-78
2022/01/21 05:50:12;;;;;;;10.93;5.50;;;;;;;;;;5064098;28;20468;-78
2022/01/21 05:52:41;;;;;;;6.70;5.03;;;;;;;;;;5070027;28;20446;-77
2022/01/21 05:55:10;;;;;;;9.73;5.03;;;;;;;;;;5070424;28;20441;-78
2022/01/21 05:57:37;;;;;;;5.80;5.10;;;;;;;;;;5071212;28;20504;-79
2022/01/21 06:00:05;;;;;;;7.97;5.67;;;;;;;;;;5070599;28;20501;-77
2022/01/21 06:02:32;;;;;;;5.83;5.00;;;;;;;;;;5071056;28;20441;-78
2022/01/21 06:04:59;;;;;;;6.17;5.00;;;;;;;;;;5071216;28;20472;-78
2022/01/21 06:07:26;;;;;;;11.07;5.80;;;;;;;;;;5070499;28;20469;-79
2022/01/21 06:09:53;;;;;;;7.77;5.33;;;;;;;;;;5072785;28;20510;-78
2022/01/21 06:12:21;;;;;;;6.50;4.80;;;;;;;;;;5071405;28;20437;-77
2022/01/21 06:14:48;;;;;;;6.30;4.80;;;;;;;;;;5073725;28;20476;-78
2022/01/21 06:17:15;;;;;;;7.00;5.23;;;;;;;;;;5085630;28;20499;-79
2022/01/21 06:19:44;;;;;;;7.33;5.70;;;;;;;;;;5088474;28;20526;-77
2022/01/21 06:22:12;;;;;;;7.10;4.80;;;;;;;;;;5083958;28;20897;-80
2022/01/21 06:24:39;;;;;;;8.50;5.63;;;;;;;;;;5078385;28;21166;-78
2022/01/21 06:27:06;;;;;;;9.80;5.47;;;;;;;;;;5073702;28;20441;-79
2022/01/21 06:29:35;;;;;;;10.60;6.20;;;;;;;;;;5073322;28;20441;-79
2022/01/21 06:32:02;;;;;;;20.00;7.13;;;;;;;;;;5074381;28;20451;-79
2022/01/21 06:34:29;;;;;;;11.33;5.80;;;;;;;;;;5080210;28;20440;-78
2022/01/21 06:36:56;;;;;;;13.23;6.53;;;;;;;;;;5083805;28;20488;-79
2022/01/21 06:39:23;;;;;;;9.63;6.10;;;;;;;;;;5086802;28;20469;-78
2022/01/21 06:41:51;;;;;;;8.37;6.20;;;;;;;;;;5086140;28;20448;-77
2022/01/21 06:44:18;;;;;;;9.40;6.03;;;;;;;;;;5077575;28;20444;-79
2022/01/21 06:46:47;;;;;;;29.87;14.97;;;;;;;;;;5074528;28;20453;-78
2022/01/21 06:49:14;;;;;;;10.23;6.60;;;;;;;;;;5074247;28;20507;-78
2022/01/21 06:51:41;;;;;;;9.23;6.40;;;;;;;;;;5073558;28;20448;-78
2022/01/21 06:54:08;;;;;;;12.53;7.30;;;;;;;;;;5073240;28;20438;-77
2022/01/21 06:56:35;;;;;;;11.43;6.07;;;;;;;;;;5073390;28;20805;-78
2022/01/21 06:59:02;;;;;;;17.50;7.67;;;;;;;;;;5073172;28;20468;-78
2022/01/21 07:01:29;;;;;;;11.33;6.00;;;;;;;;;;5072663;28;20442;-78
2022/01/21 07:03:57;;;;;;;9.27;5.80;;;;;;;;;;5072116;28;20475;-78
2022/01/21 07:06:24;;;;;;;6.53;5.70;;;;;;;;;;5072532;28;20899;-80
2022/01/21 07:08:51;;;;;;;9.03;5.80;;;;;;;;;;5072710;28;20582;-79
2022/01/21 07:11:18;;;;;;;10.80;6.73;;;;;;;;;;5072380;28;20540;-78
2022/01/21 07:13:45;;;;;;;7.20;5.50;;;;;;;;;;5072574;28;20878;-78
2022/01/21 07:16:12;;;;;;;7.53;6.03;;;;;;;;;;5072245;28;20885;-78
2022/01/21 07:18:39;;;;;;;7.70;6.20;;;;;;;;;;5072150;28;20531;-79
2022/01/21 07:21:08;;;;;;;9.47;6.27;;;;;;;;;;5072193;28;20506;-79
2022/01/21 07:23:35;;;;;;;11.43;5.80;;;;;;;;;;5072278;28;20480;-78
2022/01/21 07:26:02;;;;;;;7.40;6.03;;;;;;;;;;5072235;28;20442;-79
2022/01/21 07:28:29;;;;;;;10.90;7.20;;;;;;;;;;5071519;28;20472;-78
2022/01/21 07:30:56;;;;;;;9.37;6.03;;;;;;;;;;5072669;28;20445;-79
2022/01/21 07:33:23;;;;;;;12.60;6.43;;;;;;;;;;5072056;28;20441;-78
2022/01/21 07:35:50;;;;;;;7.70;6.70;;;;;;;;;;5071882;28;20936;-78
2022/01/21 07:38:18;;;;;;;12.37;7.17;;;;;;;;;;5072241;28;20485;-78
2022/01/21 07:40:45;;;;;;;9.37;6.77;;;;;;;;;;5072677;28;20448;-78
2022/01/21 07:43:12;;;;;;;9.20;6.30;;;;;;;;;;5072061;28;20434;-80
2022/01/21 07:45:39;;;;;;;13.43;6.27;;;;;;;;;;5072267;28;20463;-78
2022/01/21 07:48:07;;;;;;;12.67;7.23;;;;;;;;;;5072236;28;20465;-78
2022/01/21 07:50:35;;;;;;;10.00;6.60;;;;;;;;;;5072212;28;20433;-78
2022/01/21 07:53:02;;;;;;;12.77;7.37;;;;;;;;;;5072421;28;20449;-79
2022/01/21 07:55:30;;;;;;;10.67;6.83;;;;;;;;;;5074716;28;20487;-79
2022/01/21 07:58:00;;;;;;;12.93;7.70;;;;;;;;;;5088003;28;20473;-78
2022/01/21 08:00:27;;;;;;;13.70;7.40;;;;;;;;;;5094439;28;20449;-79
2022/01/21 08:02:54;;;;;;;11.20;7.10;;;;;;;;;;5098309;28;20494;-78
2022/01/21 08:05:21;;;;;;;8.10;6.33;;;;;;;;;;5098426;28;20433;-77
2022/01/21 08:07:48;;;;;;;12.77;6.70;;;;;;;;;;5098354;28;20487;-77
2022/01/21 08:10:15;;;;;;;11.03;6.10;;;;;;;;;;5098422;28;20438;-80
2022/01/21 08:12:43;;;;;;;9.70;7.43;;;;;;;;;;5096651;28;20471;-76
2022/01/21 08:15:11;;;;;;;15.47;7.50;;;;;;;;;;5096544;28;20445;-76
2022/01/21 08:17:38;;;;;;;8.70;6.37;;;;;;;;;;5096306;28;20486;-75
2022/01/21 08:20:05;;;;;;;9.73;6.43;;;;;;;;;;5091676;28;20506;-76
2022/01/21 08:22:32;;;;;;;14.53;7.57;;;;;;;;;;5092282;28;20429;-75
2022/01/21 08:24:59;;;;;;;7.57;6.37;;;;;;;;;;5093782;28;20445;-78
2022/01/21 08:27:26;;;;;;;9.33;7.00;;;;;;;;;;5089943;28;20445;-78
2022/01/21 08:29:56;;;;;;;9.10;6.60;;;;;;;;;;5083297;28;20445;-80
2022/01/21 08:32:23;;;;;;;16.07;6.37;;;;;;;;;;5086382;28;20445;-77
2022/01/21 08:34:50;;;;;;;10.73;6.33;;;;;;;;;;5089226;28;20460;-77
2022/01/21 08:37:18;;;;;;;10.10;6.20;;;;;;;;;;5085413;28;20442;-78
2022/01/21 08:39:45;;;;;;;8.67;6.37;;;;;;;;;;5077186;28;20449;-80
2022/01/21 08:42:12;;;;;;;11.43;6.60;;;;;;;;;;5072316;28;20526;-78
2022/01/21 08:44:39;;;;;;;8.87;6.33;;;;;;;;;;5071410;28;20437;-79
2022/01/21 08:47:07;;;;;;;9.60;7.00;;;;;;;;;;5077461;28;20449;-77
2022/01/21 08:49:35;;;;;;;9.77;6.60;;;;;;;;;;5072846;28;20461;-78
2022/01/21 08:52:02;;;;;;;14.30;7.60;;;;;;;;;;5072960;28;20507;-79
2022/01/21 08:54:29;;;;;;;12.43;7.10;;;;;;;;;;5072936;28;20921;-78
2022/01/21 08:56:57;;;;;;;10.20;6.83;;;;;;;;;;5070147;28;20433;-77
2022/01/21 08:59:26;;;;;;;12.83;6.93;;;;;;;;;;5072337;28;20485;-79
2022/01/21 09:01:54;;;;;;;9.03;6.60;;;;;;;;;;5073414;28;20497;-79
2022/01/21 09:04:22;;;;;;;11.57;7.60;;;;;;;;;;5074782;28;20480;-78
2022/01/21 09:06:50;;;;;;;9.40;7.30;;;;;;;;;;5075368;28;20826;-78
2022/01/21 09:09:17;;;;;;;15.10;8.13;;;;;;;;;;5074965;28;20541;-80
2022/01/21 09:11:44;;;;;;;13.40;7.40;;;;;;;;;;5074380;28;20418;-78
2022/01/21 09:14:11;;;;;;;11.10;7.80;;;;;;;;;;5072005;28;20453;-80
2022/01/21 09:16:39;;;;;;;10.33;7.60;;;;;;;;;;5072335;28;21210;-78
2022/01/21 09:19:06;;;;;;;11.50;6.90;;;;;;;;;;5071816;28;20485;-78
2022/01/21 09:21:35;;;;;;;13.80;7.30;;;;;;;;;;5072547;28;20441;-78
2022/01/21 09:24:03;;;;;;;8.23;6.63;;;;;;;;;;5071474;28;20441;-79
2022/01/21 09:26:30;;;;;;;11.53;8.13;;;;;;;;;;5072377;28;20830;-79
2022/01/21 09:28:57;;;;;;;9.53;7.83;;;;;;;;;;5080408;28;20844;-78
2022/01/21 09:31:25;;;;;;;13.47;8.00;;;;;;;;;;5073607;28;20846;-79
2022/01/21 09:33:52;;;;;;;8.37;7.27;;;;;;;;;;5072465;28;20453;-77
2022/01/21 09:36:20;;;;;;;10.00;7.90;;;;;;;;;;5071859;28;20456;-78
2022/01/21 09:38:49;;;;;;;13.30;8.60;;;;;;;;;;5071559;28;20477;-79
2022/01/21 09:41:17;;;;;;;10.57;7.37;;;;;;;;;;5053141;28;20528;-78
2022/01/21 09:43:46;;;;;;;14.50;7.40;;;;;;;;;;5058740;28;20472;-79
2022/01/21 09:46:14;;;;;;;15.03;8.17;;;;;;;;;;5070768;28;20929;-77
2022/01/21 09:48:52;;;;;;;11.47;7.33;;;;;;;;;;5071417;28;20464;-79
2022/01/21 09:51:19;;;;;;;15.67;8.40;;;;;;;;;;5072214;28;20433;-79
2022/01/21 09:53:46;;;;;;;13.20;6.60;;;;;;;;;;5074879;28;20441;-79
2022/01/21 09:56:18;;;;;;;11.10;7.10;;;;;;;;;;5075217;28;20429;-78
2022/01/21 09:58:47;;;;;;;10.90;7.00;;;;;;;;;;5073636;28;20495;-79
2022/01/21 10:01:15;;;;;;;17.10;8.23;;;;;;;;;;5073872;28;20499;-77
2022/01/21 10:03:43;;;;;;;10.50;6.60;;;;;;;;;;5073932;28;20498;-78
2022/01/21 10:06:10;;;;;;;8.27;7.40;;;;;;;;;;5073789;28;20444;-78
2022/01/21 10:08:41;;;;;;;10.73;6.50;;;;;;;;;;5073563;28;20494;-80
2022/01/21 10:11:08;;;;;;;12.23;6.60;;;;;;;;;;5073182;28;20453;-78
2022/01/21 10:13:36;;;;;;;10.23;7.23;;;;;;;;;;5073285;28;20948;-78
2022/01/21 10:16:04;;;;;;;12.80;6.80;;;;;;;;;;5074310;28;20476;-78
2022/01/21 10:18:31;;;;;;;9.90;6.73;;;;;;;;;;5075718;28;20556;-79
2022/01/21 10:20:59;;;;;;;11.23;7.50;;;;;;;;;;5075690;28;20937;-78
2022/01/21 10:23:27;;;;;;;13.33;7.00;;;;;;;;;;5075351;28;20792;-77
2022/01/21 10:25:59;;;;;;;8.33;7.30;;;;;;;;;;5076290;28;20955;-78
2022/01/21 10:28:26;;;;;;;10.90;7.37;;;;;;;;;;5058335;28;20973;-79
2022/01/21 10:31:05;;;;;;;11.57;6.40;;;;;;;;;;5058062;28;20506;-78
2022/01/21 10:33:33;;;;;;;8.30;6.77;;;;;;;;;;5074115;28;20421;-81
2022/01/21 10:36:10;;;;;;;10.80;6.67;;;;;;;;;;5057142;28;20468;-77
2022/01/21 10:38:42;;;;;;;13.97;8.83;;;;;;;;;;5055221;28;20478;-78
2022/01/21 10:41:10;;;;;;;10.70;6.60;;;;;;;;;;5054767;28;20454;-77
2022/01/21 10:43:37;;;;;;;11.17;6.77;;;;;;;;;;5054358;28;20512;-78
2022/01/21 10:46:06;;;;;;;12.27;7.03;;;;;;;;;;5054646;28;20811;-78
2022/01/21 10:48:33;;;;;;;8.87;6.13;;;;;;;;;;5054855;28;20461;-78
2022/01/21 10:51:17;;;;;;;14.30;5.73;;;;;;;;;;5054952;28;20444;-78
2022/01/21 10:53:44;;;;;;;9.93;6.50;;;;;;;;;;5054308;28;20466;-77
2022/01/21 10:56:12;;;;;;;16.43;6.47;;;;;;;;;;5054728;28;20533;-77
2022/01/21 10:58:40;;;;;;;8.73;5.47;;;;;;;;;;5054400;28;20536;-77
2022/01/21 11:01:12;;;;;;;13.47;6.67;;;;;;;;;;5054549;28;20810;-76
2022/01/21 11:03:55;;;;;;;10.50;5.60;;;;;;;;;;5053457;28;20439;-77
2022/01/21 11:06:25;;;;;;;8.43;6.00;;;;;;;;;;5054553;28;20428;-77
2022/01/21 11:09:12;;;;;;;7.20;5.33;;;;;;;;;;5054019;28;20462;-78
2022/01/21 11:11:39;;;;;;;10.77;5.67;;;;;;;;;;5054050;28;20445;-78
2022/01/21 11:14:10;;;;;;;16.27;5.97;;;;;;;;;;5065605;28;20518;-78
2022/01/21 11:16:40;;;;;;;6.40;5.30;;;;;;;;;;5074023;28;20421;-78
2022/01/21 11:19:09;;;;;;;10.13;5.87;;;;;;;;;;5062524;28;20494;-77
2022/01/21 11:21:51;;;;;;;11.13;5.80;;;;;;;;;;5073034;28;20514;-77
2022/01/21 11:24:19;;;;;;;8.23;5.90;;;;;;;;;;5073274;28;21011;-79
2022/01/21 11:27:05;;;;;;;7.80;5.23;;;;;;;;;;5073924;28;20450;-77
2022/01/21 11:29:32;;;;;;;5.40;4.47;;;;;;;;;;5074118;28;20893;-77
2022/01/21 11:32:01;;;;;;;10.37;5.90;;;;;;;;;;5073828;28;20453;-78
2022/01/21 11:34:28;;;;;;;14.00;5.83;;;;;;;;;;5073377;28;20450;-77
2022/01/21 11:36:55;;;;;;;6.23;5.00;;;;;;;;;;5074403;28;20441;-77
2022/01/21 11:39:24;;;;;;;11.00;5.50;;;;;;;;;;5073835;28;20485;-78
2022/01/21 11:41:52;;;;;;;11.50;4.87;;;;;;;;;;5073919;28;20449;-78
2022/01/21 11:44:21;;;;;;;7.67;4.70;;;;;;;;;;5073769;28;20823;-78
2022/01/21 11:47:02;;;;;;;11.40;5.33;;;;;;;;;;5073792;28;21006;-78
2022/01/21 11:49:32;;;;;;;9.87;5.07;;;;;;;;;;5073747;28;20425;-78
2022/01/21 11:52:12;;;;;;;6.33;4.33;;;;;;;;;;5073653;28;20841;-77
2022/01/21 11:54:40;;;;;;;10.70;4.27;;;;;;;;;;5073365;28;20442;-78
2022/01/21 11:57:07;;;;;;;8.00;4.90;;;;;;;;;;5073696;28;20450;-78
2022/01/21 11:59:41;;;;;;;5.50;4.50;;;;;;;;;;5072693;28;21019;-78
2022/01/21 12:02:19;;;;;;;8.07;4.60;;;;;;;;;;5074068;28;20429;-78
2022/01/21 12:04:48;;;;;;;8.80;4.07;;;;;;;;;;5073440;28;20877;-78
2022/01/21 12:07:34;;;;;;;5.97;3.97;;;;;;;;;;5074014;28;20487;-80
2022/01/21 12:10:01;;;;;;;8.93;4.23;;;;;;;;;;5073645;28;20449;-79
2022/01/21 12:13:00;;;;;;;9.57;5.67;;;;;;;;;;5073283;28;20493;-80
2022/01/21 12:15:52;;;;;;;5.90;4.20;;;;;;;;;;5073065;28;20448;-78
2022/01/21 12:18:35;;;;;;;13.63;4.33;;;;;;;;;;5073137;28;20476;-77
2022/01/21 12:21:06;;;;;;;12.50;5.20;;;;;;;;;;5073340;28;20782;-78
2022/01/21 12:23:44;;;;;;;8.20;4.43;;;;;;;;;;5073062;28;20442;-78
2022/01/21 12:26:15;;;;;;;5.80;4.40;;;;;;;;;;5072677;28;20909;-78
2022/01/21 12:28:43;;;;;;;6.30;4.00;;;;;;;;;;5072795;28;21014;-77
2022/01/21 12:31:11;;;;;;;9.27;3.67;;;;;;;;;;5073103;28;20445;-78
2022/01/21 12:34:00;;;;;;;10.90;4.80;;;;;;;;;;5068896;28;20929;-79
2022/01/21 12:36:31;;;;;;;5.63;4.23;;;;;;;;;;5074229;28;20937;-77
2022/01/21 12:39:09;;;;;;;11.57;3.97;;;;;;;;;;5066788;28;20994;-77
2022/01/21 12:41:37;;;;;;;7.50;3.13;;;;;;;;;;5072778;28;20453;-77
2022/01/21 12:44:06;;;;;;;6.40;3.40;;;;;;;;;;5075521;28;20445;-77
2022/01/21 12:46:35;;;;;;;7.40;4.00;;;;;;;;;;5073904;28;20663;-79
2022/01/21 12:49:03;;;;;;;6.67;3.73;;;;;;;;;;5073796;28;20507;-77
2022/01/21 12:51:55;;;;;;;10.10;3.80;;;;;;;;;;5073013;28;20435;-78
2022/01/21 12:57:09;;;;;;;6.53;3.83;;;;;;;;;;5072736;28;20401;-78
2022/01/21 12:59:36;;;;;;;10.50;4.00;;;;;;;;;;5073226;28;20507;-78
2022/01/21 13:02:05;;;;;;;12.03;4.10;;;;;;;;;;5073077;28;20441;-78
2022/01/21 13:04:43;;;;;;;10.07;4.13;;;;;;;;;;5072387;28;20445;-78
2022/01/21 13:07:12;;;;;;;5.57;3.50;;;;;;;;;;5072693;28;20908;-79
2022/01/21 13:10:00;;;;;;;6.80;3.57;;;;;;;;;;5072687;28;20929;-79
2022/01/21 13:12:45;;;;;;;10.40;4.03;;;;;;;;;;5072449;28;20430;-78
2022/01/21 13:15:13;;;;;;;6.93;3.97;;;;;;;;;;5073175;28;20510;-78
2022/01/21 13:17:40;;;;;;;4.57;3.77;;;;;;;;;;5073298;28;20480;-79
2022/01/21 13:20:08;;;;;;;6.23;4.10;;;;;;;;;;5069896;28;21142;-79
2022/01/21 13:22:36;;;;;;;7.27;3.87;;;;;;;;;;5059981;28;20465;-79
2022/01/21 13:25:07;;;;;;;11.57;4.33;;;;;;;;;;5065729;28;20446;-78
2022/01/21 13:27:35;;;;;;;5.87;3.20;;;;;;;;;;5063738;28;20461;-78
2022/01/21 13:30:03;;;;;;;6.57;3.90;;;;;;;;;;5079152;28;20430;-77
2022/01/21 13:32:30;;;;;;;10.97;3.80;;;;;;;;;;5074350;28;20450;-78
2022/01/21 13:35:07;;;;;;;9.87;4.50;;;;;;;;;;5059850;28;20444;-79
2022/01/21 13:37:34;;;;;;;6.57;3.40;;;;;;;;;;5074929;28;20457;-79
2022/01/21 13:40:04;;;;;;;8.30;4.00;;;;;;;;;;5072139;28;20474;-78
2022/01/21 13:42:32;;;;;;;8.80;3.80;;;;;;;;;;5072741;28;20425;-79
2022/01/21 13:45:01;;;;;;;7.77;3.53;;;;;;;;;;5071757;28;20478;-78
2022/01/21 13:47:31;;;;;;;4.40;3.40;;;;;;;;;;5074813;28;20545;-80
2022/01/21 13:49:59;;;;;;;7.90;3.27;;;;;;;;;;5072778;28;20430;-78
2022/01/21 13:52:34;;;;;;;6.73;3.20;;;;;;;;;;5072453;28;20450;-80
2022/01/21 13:55:03;;;;;;;4.77;3.70;;;;;;;;;;5072696;28;20494;-79
2022/01/21 13:57:30;;;;;;;3.80;3.10;;;;;;;;;;5071873;28;20576;-78
2022/01/21 13:59:57;;;;;;;9.70;4.60;;;;;;;;;;5071607;28;20480;-77
2022/01/21 14:02:25;;;;;;;9.70;3.37;;;;;;;;;;5072180;28;20495;-78
2022/01/21 14:04:56;;;;;;;4.90;3.37;;;;;;;;;;5072007;28;20930;-79
2022/01/21 14:07:25;;;;;;;6.73;3.50;;;;;;;;;;5071426;28;20465;-78
2022/01/21 14:09:52;;;;;;;6.87;3.67;;;;;;;;;;5071374;28;20508;-78
2022/01/21 14:12:21;;;;;;;9.23;3.17;;;;;;;;;;5071784;28;20443;-77
2022/01/21 14:14:49;;;;;;;5.03;3.10;;;;;;;;;;5072071;28;20442;-78
2022/01/21 14:17:18;;;;;;;6.20;3.60;;;;;;;;;;5071675;28;20936;-76
2022/01/21 14:19:45;;;;;;;6.67;3.73;;;;;;;;;;5071526;28;20513;-77
2022/01/21 14:22:13;;;;;;;10.57;4.20;;;;;;;;;;5071778;28;20441;-78
2022/01/21 14:24:41;;;;;;;7.40;3.30;;;;;;;;;;5071699;28;20919;-78
2022/01/21 14:27:16;;;;;;;6.73;3.63;;;;;;;;;;5070639;28;20446;-78
2022/01/21 14:29:49;;;;;;;5.00;3.17;;;;;;;;;;5070265;28;20422;-77
2022/01/21 14:32:17;;;;;;;9.00;3.10;;;;;;;;;;5071752;28;20430;-77
2022/01/21 14:34:45;;;;;;;3.30;2.97;;;;;;;;;;5071925;28;20492;-78
2022/01/21 14:37:13;;;;;;;4.40;3.23;;;;;;;;;;5072923;28;20446;-77
2022/01/21 14:39:41;;;;;;;7.20;3.43;;;;;;;;;;5075129;28;20834;-78
2022/01/21 14:42:08;;;;;;;5.80;3.40;;;;;;;;;;5074929;28;20982;-78
2022/01/21 14:44:37;;;;;;;5.80;3.23;;;;;;;;;;5074771;28;20459;-77
2022/01/21 14:47:11;;;;;;;6.03;2.70;;;;;;;;;;5074720;28;20498;-78
2022/01/21 14:49:38;;;;;;;7.33;3.30;;;;;;;;;;5074744;28;20439;-78
2022/01/21 14:54:46;;;;;;;4.47;3.63;;;;;;;;;;5049776;28;20426;-78
2022/01/21 14:57:13;;;;;;;3.27;2.97;;;;;;;;;;5052532;28;20439;-78
2022/01/21 14:59:52;;;;;;;6.30;3.80;;;;;;;;;;5053058;28;21059;-77
2022/01/21 15:02:27;;;;;;;6.40;3.13;;;;;;;;;;5054280;28;20537;-77
2022/01/21 15:04:55;;;;;;;6.07;3.13;;;;;;;;;;5073153;28;21009;-78
2022/01/21 15:07:25;;;;;;;5.73;3.40;;;;;;;;;;5073407;28;20827;-79
2022/01/21 15:09:54;;;;;;;6.30;3.10;;;;;;;;;;5073627;28;20541;-78
2022/01/21 15:15:13;;;;;;;8.77;4.43;;;;;;;;;;5073732;28;20421;-78
2022/01/21 15:17:53;;;;;;;7.40;4.00;;;;;;;;;;5073604;28;20488;-79
2022/01/21 15:20:22;;;;;;;8.77;3.10;;;;;;;;;;5073893;28;20546;-78
2022/01/21 15:22:49;;;;;;;3.77;3.40;;;;;;;;;;5074427;28;20815;-78
2022/01/21 15:25:16;;;;;;;10.93;3.47;;;;;;;;;;5074135;28;20445;-78
2022/01/21 15:27:43;;;;;;;7.73;3.30;;;;;;;;;;5073978;28;20463;-78
2022/01/21 15:30:10;;;;;;;9.10;3.60;;;;;;;;;;5073802;28;20816;-77
2022/01/21 15:32:37;;;;;;;8.43;4.53;;;;;;;;;;5072949;28;20458;-78
2022/01/21 15:35:06;;;;;;;8.77;4.60;;;;;;;;;;5073503;28;20441;-77
2022/01/21 15:37:33;;;;;;;4.83;3.30;;;;;;;;;;5073470;28;20470;-77
2022/01/21 15:40:00;;;;;;;7.67;3.33;;;;;;;;;;5073826;28;20477;-77
2022/01/21 15:42:27;;;;;;;6.77;3.57;;;;;;;;;;5073801;28;20449;-78